Time;durP1;ratioP1;P1;durP2;ratioP2;P2;SDS_P1;SDS_P2;PMS_P1;PMS_P2;Temp;Humidity;BMP_temperature;BMP_pressure;BME280_temperature;BME280_humidity;BME280_pressure;Samples;Min_cycle;Max_cycle;Signal;HPM_P1;HPM_P2
2022/08/04 00:00:06;;;;;;;3.47;2.90;;;21.10;99.90;;;;;;7275564;19;2019886;-77
2022/08/04 00:02:56;;;;;;;3.10;2.60;;;21.10;99.90;;;;;;7379413;19;20372;-78
2022/08/04 00:05:40;;;;;;;2.95;2.75;;;21.10;99.90;;;;;;7378918;19;20986;-78
2022/08/04 00:08:16;;;;;;;2.63;2.42;;;21.00;99.90;;;;;;7275256;19;2010382;-78
2022/08/04 00:10:43;;;;;;;2.80;2.60;;;21.00;99.90;;;;;;7379852;19;20341;-78
2022/08/04 00:13:08;;;;;;;2.70;2.50;;;20.90;99.90;;;;;;7375962;19;20957;-78
2022/08/04 00:15:34;;;;;;;2.50;2.30;;;20.90;99.90;;;;;;7379441;19;20345;-78
2022/08/04 00:18:03;;;;;;;2.70;2.50;;;20.90;99.90;;;;;;7379691;19;20559;-77
2022/08/04 00:20:33;;;;;;;3.10;2.83;;;20.80;99.90;;;;;;7378230;19;20320;-78
2022/08/04 00:22:59;;;;;;;3.23;2.83;;;20.70;99.90;;;;;;7376910;19;20344;-78
2022/08/04 00:25:25;;;;;;;3.10;2.90;;;20.70;99.90;;;;;;7378094;19;20312;-78
2022/08/04 00:27:50;;;;;;;3.38;3.10;;;20.60;99.90;;;;;;7376667;19;20348;-78
2022/08/04 00:30:16;;;;;;;2.93;2.73;;;20.50;99.90;;;;;;7378252;19;20826;-78
2022/08/04 00:32:42;;;;;;;2.80;2.60;;;20.50;99.90;;;;;;7376637;19;20332;-78
2022/08/04 00:35:12;;;;;;;2.83;2.63;;;20.50;99.90;;;;;;7379000;19;20893;-78
2022/08/04 00:37:38;;;;;;;3.13;2.92;;;20.40;99.90;;;;;;7377556;19;20399;-78
2022/08/04 00:40:22;;;;;;;4.00;3.20;;;20.40;99.90;;;;;;7378688;19;20853;-77
2022/08/04 00:43:05;;;;;;;2.90;2.70;;;20.40;99.90;;;;;;7375560;19;20443;-78
2022/08/04 00:45:57;;;;;;;3.08;2.78;;;20.40;99.90;;;;;;7275025;19;2004548;-78
2022/08/04 00:48:32;;;;;;;2.83;2.63;;;20.40;99.90;;;;;;7280719;19;2019992;-77
2022/08/04 00:51:13;;;;;;;2.70;2.50;;;20.30;99.90;;;;;;7387049;19;20696;-78
2022/08/04 00:54:01;;;;;;;3.08;2.88;;;20.30;99.90;;;;;;7382608;19;20326;-77
2022/08/04 00:56:45;;;;;;;3.00;2.80;;;20.30;99.90;;;;;;7281441;19;2004386;-78
2022/08/04 00:59:34;;;;;;;3.22;2.92;;;20.20;99.90;;;;;;7382595;19;20352;-77
2022/08/04 01:02:20;;;;;;;2.90;2.70;;;20.10;99.90;;;;;;7281905;19;2004723;-77
2022/08/04 01:04:54;;;;;;;3.17;2.88;;;20.10;99.90;;;;;;7383237;19;20307;-78
2022/08/04 01:07:41;;;;;;;3.10;2.80;;;20.10;99.90;;;;;;7381932;19;20894;-78
2022/08/04 01:10:12;;;;;;;3.30;3.00;;;20.10;99.90;;;;;;7283884;19;2004322;-78
2022/08/04 01:13:06;;;;;;;2.88;2.67;;;20.00;99.90;;;;;;7382048;19;20353;-77
2022/08/04 01:15:45;;;;;;;3.67;2.97;;;20.00;99.90;;;;;;7282342;19;2004343;-77
2022/08/04 01:18:18;;;;;;;3.40;3.20;;;20.00;99.90;;;;;;7383028;19;20364;-78
2022/08/04 01:21:10;;;;;;;3.30;3.10;;;19.90;99.90;;;;;;7385248;19;20366;-78
2022/08/04 01:23:36;;;;;;;2.90;2.70;;;20.00;99.90;;;;;;7278351;19;2019109;-78
2022/08/04 01:26:09;;;;;;;3.17;2.90;;;20.00;99.90;;;;;;7381989;19;20353;-78
2022/08/04 01:28:59;;;;;;;3.17;2.97;;;20.00;99.90;;;;;;7384530;19;20320;-78
2022/08/04 01:31:46;;;;;;;3.05;2.75;;;20.00;99.90;;;;;;7280339;19;2004511;-77
2022/08/04 01:34:12;;;;;;;3.00;2.80;;;19.90;99.90;;;;;;7382407;19;20354;-77
2022/08/04 01:36:44;;;;;;;3.20;2.80;;;19.90;99.90;;;;;;7382467;19;20415;-79
2022/08/04 01:41:54;;;;;;;3.60;3.30;;;19.80;99.90;;;;;;7282826;19;2004468;-78
2022/08/04 01:44:20;;;;;;;3.30;3.10;;;19.70;99.90;;;;;;7381502;19;20330;-78
2022/08/04 01:46:45;;;;;;;3.50;3.30;;;19.70;99.90;;;;;;7382387;19;20867;-77
2022/08/04 01:49:11;;;;;;;3.40;3.10;;;19.60;99.90;;;;;;7383869;19;20353;-77
2022/08/04 01:51:38;;;;;;;3.07;2.87;;;19.60;99.90;;;;;;7381922;19;20324;-78
2022/08/04 01:54:03;;;;;;;2.90;2.70;;;19.60;99.90;;;;;;7381154;19;20869;-77
2022/08/04 01:56:29;;;;;;;3.40;3.20;;;19.50;99.90;;;;;;7380849;19;20320;-79
2022/08/04 01:58:56;;;;;;;3.30;3.00;;;19.60;99.90;;;;;;7380336;19;20693;-77
2022/08/04 02:01:22;;;;;;;4.00;3.03;;;19.50;99.90;;;;;;7383625;19;20316;-78
2022/08/04 02:03:47;;;;;;;2.90;2.70;;;19.50;99.90;;;;;;7381310;19;20352;-77
2022/08/04 02:06:23;;;;;;;3.20;2.90;;;19.50;99.90;;;;;;7381436;19;20308;-77
2022/08/04 02:12:34;;;;;;;3.03;2.83;;;19.50;99.90;;;;;;7161144;19;2004554;-78
2022/08/04 02:15:22;;;;;;;2.95;2.75;;;19.40;99.90;;;;;;7276927;19;2020210;-77
2022/08/04 02:17:59;;;;;;;3.28;2.90;;;19.40;99.90;;;;;;7382942;19;20365;-78
2022/08/04 02:20:34;;;;;;;3.17;2.97;;;19.30;99.90;;;;;;7277565;19;2004555;-77
2022/08/04 02:23:05;;;;;;;3.30;2.92;;;19.30;99.90;;;;;;7380919;19;20948;-77
2022/08/04 02:25:45;;;;;;;3.08;2.88;;;19.30;99.90;;;;;;7381882;19;20320;-77
2022/08/04 02:28:17;;;;;;;3.10;2.80;;;19.30;99.90;;;;;;7381900;19;20352;-77
2022/08/04 02:30:49;;;;;;;3.20;2.90;;;19.30;99.90;;;;;;7375185;19;20325;-77
2022/08/04 02:33:18;;;;;;;3.33;3.13;;;19.30;99.90;;;;;;7382826;19;20321;-78
2022/08/04 02:35:43;;;;;;;3.40;3.10;;;19.20;99.90;;;;;;7380840;19;21256;-78
2022/08/04 02:38:30;;;;;;;2.80;2.60;;;19.20;99.90;;;;;;7382395;19;20341;-78
2022/08/04 02:40:56;;;;;;;3.38;3.08;;;19.20;99.90;;;;;;7277536;19;2004605;-77
2022/08/04 02:43:21;;;;;;;3.05;2.85;;;19.20;99.90;;;;;;7383018;19;20941;-78
2022/08/04 02:45:47;;;;;;;3.10;2.90;;;19.20;99.90;;;;;;7381696;19;20351;-78
2022/08/04 02:48:13;;;;;;;3.10;2.80;;;19.20;99.90;;;;;;7380773;19;20372;-77
2022/08/04 02:50:38;;;;;;;3.28;2.97;;;19.20;99.90;;;;;;7380554;19;20336;-77
2022/08/04 02:53:05;;;;;;;3.33;2.83;;;19.20;99.90;;;;;;7380731;19;20349;-77
2022/08/04 02:55:31;;;;;;;2.95;2.75;;;19.20;99.90;;;;;;7380283;19;20332;-78
2022/08/04 02:57:57;;;;;;;3.10;2.90;;;19.20;99.90;;;;;;7381690;19;21231;-79
2022/08/04 03:00:23;;;;;;;3.10;2.80;;;19.10;99.90;;;;;;7377146;19;20375;-78
2022/08/04 03:03:04;;;;;;;3.30;3.00;;;19.20;99.90;;;;;;7380316;19;20901;-78
2022/08/04 03:05:44;;;;;;;3.13;2.93;;;19.20;99.90;;;;;;7278833;19;2004282;-78
2022/08/04 03:08:15;;;;;;;3.70;3.40;;;19.10;99.90;;;;;;7379658;19;20416;-78
2022/08/04 03:11:14;;;;;;;3.00;2.80;;;19.00;99.90;;;;;;7380151;19;20693;-78
2022/08/04 03:14:09;;;;;;;3.40;3.10;;;19.00;99.90;;;;;;7275299;19;2004533;-77
2022/08/04 03:16:56;;;;;;;2.90;2.70;;;19.10;99.90;;;;;;7278177;19;2019980;-78
2022/08/04 03:19:52;;;;;;;3.40;3.10;;;19.10;99.90;;;;;;7381276;19;20674;-78
2022/08/04 03:22:28;;;;;;;3.23;2.93;;;19.10;99.90;;;;;;7277187;19;2019660;-78
2022/08/04 03:25:17;;;;;;;3.13;2.93;;;19.00;99.90;;;;;;7270267;19;2004242;-77
2022/08/04 03:28:04;;;;;;;3.10;2.90;;;19.00;99.90;;;;;;7378850;19;20416;-78
2022/08/04 03:30:44;;;;;;;3.17;2.92;;;19.00;99.90;;;;;;7275157;19;2015984;-78
2022/08/04 03:33:40;;;;;;;3.55;3.25;;;19.00;99.90;;;;;;7381388;19;20390;-78
2022/08/04 03:36:21;;;;;;;2.85;2.65;;;19.00;99.90;;;;;;7278717;19;2004369;-78
2022/08/04 03:39:19;;;;;;;3.17;2.97;;;19.00;99.90;;;;;;7381748;19;20343;-78
2022/08/04 03:42:08;;;;;;;3.33;3.03;;;19.00;99.90;;;;;;7275679;19;2004591;-78
2022/08/04 03:44:45;;;;;;;3.20;2.90;;;19.00;99.90;;;;;;7277222;19;2004355;-77
2022/08/04 03:47:41;;;;;;;3.20;2.90;;;18.90;99.90;;;;;;7381255;19;20452;-78
2022/08/04 03:50:35;;;;;;;3.10;2.90;;;19.00;99.90;;;;;;7275306;19;2004790;-78
2022/08/04 03:53:19;;;;;;;3.15;2.95;;;19.00;99.90;;;;;;7277790;19;2018830;-78
2022/08/04 03:56:05;;;;;;;3.60;2.95;;;19.00;99.90;;;;;;7380489;19;20323;-78
2022/08/04 03:58:48;;;;;;;4.93;3.05;;;19.00;99.90;;;;;;7277151;19;2004380;-78
2022/08/04 04:01:33;;;;;;;3.30;3.00;;;19.00;99.90;;;;;;7380122;19;20453;-77
2022/08/04 04:04:12;;;;;;;3.25;3.05;;;18.90;99.90;;;;;;7276042;19;2006276;-78
2022/08/04 04:06:48;;;;;;;3.40;3.10;;;18.90;99.90;;;;;;7380674;19;20349;-78
2022/08/04 04:09:16;;;;;;;4.50;3.10;;;18.90;99.90;;;;;;7379524;19;20305;-78
2022/08/04 04:12:01;;;;;;;3.25;3.05;;;18.90;99.90;;;;;;7380215;19;20313;-79
2022/08/04 04:14:52;;;;;;;3.10;2.90;;;18.90;99.90;;;;;;7278844;19;2004293;-78
2022/08/04 04:17:44;;;;;;;3.70;3.40;;;19.00;99.90;;;;;;7378689;19;20300;-78
2022/08/04 04:20:43;;;;;;;3.38;3.13;;;19.00;99.90;;;;;;7275822;19;2004516;-78
2022/08/04 04:23:29;;;;;;;3.75;3.45;;;19.00;99.90;;;;;;7278517;19;2019839;-79
2022/08/04 04:26:11;;;;;;;3.78;3.47;;;19.00;99.90;;;;;;7283825;19;2004403;-78
2022/08/04 04:28:59;;;;;;;3.60;3.30;;;19.00;99.90;;;;;;7387547;19;20390;-78
2022/08/04 04:31:56;;;;;;;4.93;3.22;;;19.10;99.90;;;;;;7280527;19;2004163;-78
2022/08/04 04:34:41;;;;;;;3.20;3.00;;;19.10;99.90;;;;;;7386000;19;20325;-78
2022/08/04 04:37:22;;;;;;;3.35;3.05;;;19.10;99.90;;;;;;7364604;19;20348;-78
2022/08/04 04:39:57;;;;;;;3.55;3.25;;;19.20;99.90;;;;;;7385194;19;20315;-78
2022/08/04 04:42:28;;;;;;;6.70;3.40;;;19.20;99.90;;;;;;7386335;19;20336;-78
2022/08/04 04:45:08;;;;;;;3.60;3.30;;;19.30;99.90;;;;;;7283481;19;2005913;-78
2022/08/04 04:48:20;;;;;;;3.42;3.05;;;19.40;99.90;;;;;;7384185;19;20308;-77
2022/08/04 04:50:57;;;;;;;4.77;3.40;;;19.50;99.90;;;;;;7280917;19;2004120;-78
2022/08/04 04:53:45;;;;;;;3.47;3.17;;;19.50;99.90;;;;;;7385381;19;20301;-79
2022/08/04 04:56:21;;;;;;;6.43;3.60;;;19.60;99.90;;;;;;7277593;19;2004552;-78
2022/08/04 04:58:46;;;;;;;3.58;3.33;;;19.70;99.90;;;;;;7384419;19;20380;-79
2022/08/04 05:01:44;;;;;;;3.25;2.95;;;19.80;99.90;;;;;;7379642;19;20416;-79
2022/08/04 05:04:43;;;;;;;6.50;3.40;;;19.90;99.90;;;;;;7281806;19;2004669;-78
2022/08/04 05:07:28;;;;;;;3.33;3.03;;;20.00;99.90;;;;;;7280392;19;2018833;-78
2022/08/04 05:10:21;;;;;;;3.47;3.03;;;20.10;99.90;;;;;;7280779;19;2019012;-78
2022/08/04 05:12:52;;;;;;;3.67;3.30;;;20.20;99.90;;;;;;7384041;19;20574;-78
2022/08/04 05:15:17;;;;;;;3.38;3.08;;;20.30;99.90;;;;;;7384703;19;20321;-78
2022/08/04 05:17:48;;;;;;;3.85;3.38;;;20.40;99.90;;;;;;7383755;19;20319;-78
2022/08/04 05:20:26;;;;;;;3.33;3.03;;;20.50;99.90;;;;;;7381427;19;20314;-78
2022/08/04 05:23:17;;;;;;;3.80;3.50;;;20.60;99.90;;;;;;7383765;19;20365;-78
2022/08/04 05:25:46;;;;;;;3.30;3.08;;;20.80;99.90;;;;;;7276037;19;2017655;-78
2022/08/04 05:28:17;;;;;;;4.68;3.30;;;20.90;99.90;;;;;;7380012;19;20357;-78
2022/08/04 05:30:47;;;;;;;3.80;3.50;;;21.10;99.90;;;;;;7377931;19;20854;-77
2022/08/04 05:33:21;;;;;;;3.50;3.20;;;21.20;99.90;;;;;;7378475;19;20395;-78
2022/08/04 05:35:52;;;;;;;3.42;3.13;;;21.30;99.90;;;;;;7378578;19;20341;-78
2022/08/04 05:38:19;;;;;;;3.58;3.28;;;21.50;99.90;;;;;;7378603;19;20311;-79
2022/08/04 05:40:44;;;;;;;3.47;3.17;;;21.60;99.90;;;;;;7381961;19;20365;-78
2022/08/04 05:43:11;;;;;;;3.53;3.10;;;21.70;99.90;;;;;;7383602;19;20360;-78
2022/08/04 05:45:37;;;;;;;5.85;3.28;;;21.90;99.90;;;;;;7381961;19;20344;-78
2022/08/04 05:48:02;;;;;;;5.90;3.43;;;22.00;99.90;;;;;;7382585;19;20312;-77
2022/08/04 05:50:29;;;;;;;3.65;3.35;;;22.10;99.90;;;;;;7381885;19;20342;-78
2022/08/04 05:52:55;;;;;;;3.33;3.10;;;22.20;99.90;;;;;;7381771;19;20356;-78
2022/08/04 05:55:21;;;;;;;3.28;2.97;;;22.30;99.90;;;;;;7383897;19;20320;-78
2022/08/04 05:57:47;;;;;;;2.80;2.60;;;22.50;99.90;;;;;;7382328;19;20340;-78
2022/08/04 06:00:13;;;;;;;3.85;3.08;;;22.60;99.90;;;;;;7379578;19;20858;-77
2022/08/04 06:02:38;;;;;;;4.30;3.20;;;22.80;99.90;;;;;;7381275;19;20472;-78
2022/08/04 06:05:06;;;;;;;3.55;3.25;;;22.90;99.90;;;;;;7379784;19;20369;-78
2022/08/04 06:07:32;;;;;;;4.68;3.05;;;23.10;99.90;;;;;;7376862;19;20858;-79
2022/08/04 06:09:57;;;;;;;3.60;3.30;;;23.30;99.90;;;;;;7379766;19;20355;-78
2022/08/04 06:12:36;;;;;;;4.05;3.50;;;23.40;99.90;;;;;;7380770;19;21366;-78
2022/08/04 06:15:02;;;;;;;3.50;3.20;;;23.50;99.90;;;;;;7277558;19;2004474;-78
2022/08/04 06:17:34;;;;;;;3.53;3.20;;;23.70;99.90;;;;;;7374220;19;20339;-78
2022/08/04 06:20:01;;;;;;;7.03;3.20;;;23.90;99.90;;;;;;7373818;19;20391;-78
2022/08/04 06:22:29;;;;;;;3.83;2.95;;;24.00;99.90;;;;;;7378313;19;20451;-78
2022/08/04 06:24:55;;;;;;;3.22;2.70;;;24.20;99.90;;;;;;7370541;19;20340;-78
2022/08/04 06:27:21;;;;;;;3.25;2.95;;;24.30;99.90;;;;;;7367025;19;20878;-79
2022/08/04 06:29:48;;;;;;;3.03;2.72;;;24.40;99.90;;;;;;7370201;19;20341;-78
2022/08/04 06:32:25;;;;;;;2.60;2.40;;;24.60;99.90;;;;;;7370256;19;20321;-78
2022/08/04 06:34:55;;;;;;;2.92;2.70;;;24.80;99.90;;;;;;7377686;19;20411;-78
2022/08/04 06:37:22;;;;;;;3.97;2.78;;;24.90;99.90;;;;;;7377770;19;20861;-78
2022/08/04 06:39:48;;;;;;;2.70;2.50;;;24.90;99.90;;;;;;7379434;19;20663;-78
2022/08/04 06:42:14;;;;;;;3.55;3.05;;;25.10;99.90;;;;;;7375908;19;20333;-79
2022/08/04 06:44:44;;;;;;;3.42;2.90;;;25.30;99.90;;;;;;7379744;19;20342;-78
2022/08/04 06:47:10;;;;;;;2.30;2.20;;;25.40;99.90;;;;;;7380701;19;20925;-78
2022/08/04 06:49:36;;;;;;;2.72;2.53;;;25.60;99.90;;;;;;7378804;19;20348;-78
2022/08/04 06:52:02;;;;;;;3.50;2.30;;;25.80;99.90;;;;;;7378588;19;20856;-77
2022/08/04 06:54:28;;;;;;;2.30;2.10;;;25.90;99.90;;;;;;7376855;19;20316;-78
2022/08/04 06:56:53;;;;;;;2.80;2.60;;;26.10;99.90;;;;;;7378700;19;20335;-77
2022/08/04 06:59:19;;;;;;;2.70;2.50;;;26.30;99.90;;;;;;7380619;19;20304;-77
2022/08/04 07:01:45;;;;;;;2.60;2.40;;;26.40;99.90;;;;;;7378570;19;20673;-78
2022/08/04 07:04:10;;;;;;;2.50;2.30;;;26.60;99.90;;;;;;7379660;19;20886;-79
2022/08/04 07:06:36;;;;;;;2.80;2.47;;;26.80;99.90;;;;;;7380585;19;20321;-80
2022/08/04 07:09:01;;;;;;;2.33;2.17;;;26.90;99.90;;;;;;7379229;19;20352;-79
2022/08/04 07:11:27;;;;;;;2.53;2.33;;;27.10;99.90;;;;;;7381153;19;20297;-80
2022/08/04 07:13:52;;;;;;;2.70;2.50;;;27.20;99.90;;;;;;7378899;19;20332;-80
2022/08/04 07:16:19;;;;;;;2.50;2.30;;;27.40;99.90;;;;;;7380355;19;20330;-80
2022/08/04 07:18:45;;;;;;;2.65;2.45;;;27.60;99.90;;;;;;7381112;19;20344;-79
2022/08/04 07:21:16;;;;;;;2.60;2.40;;;27.70;99.90;;;;;;7379557;19;20353;-80
2022/08/04 07:23:41;;;;;;;2.60;2.40;;;27.90;99.90;;;;;;7376788;19;20672;-79
2022/08/04 07:26:09;;;;;;;2.57;2.37;;;28.00;99.90;;;;;;7378503;19;20483;-79
2022/08/04 07:28:34;;;;;;;2.50;2.30;;;28.10;99.90;;;;;;7379318;19;20320;-80
2022/08/04 07:31:00;;;;;;;3.50;2.07;;;28.30;99.90;;;;;;7378475;19;20347;-78
2022/08/04 07:33:25;;;;;;;2.70;2.30;;;28.50;99.90;;;;;;7376452;19;20733;-78
2022/08/04 07:35:53;;;;;;;2.53;2.20;;;28.70;99.90;;;;;;7379060;19;20353;-78
2022/08/04 07:38:18;;;;;;;2.80;2.30;;;29.00;99.90;;;;;;7379610;19;20354;-79
2022/08/04 07:40:44;;;;;;;5.07;2.42;;;29.00;99.90;;;;;;7379489;19;20305;-79
2022/08/04 07:43:10;;;;;;;2.53;2.33;;;29.20;99.90;;;;;;7377725;19;20353;-78
2022/08/04 07:45:35;;;;;;;2.50;2.03;;;29.30;99.90;;;;;;7378676;19;20323;-79
2022/08/04 07:48:02;;;;;;;2.30;2.10;;;29.40;99.90;;;;;;7379376;19;20415;-78
2022/08/04 07:50:28;;;;;;;2.50;2.30;;;29.50;99.90;;;;;;7378012;19;20353;-79
2022/08/04 07:52:54;;;;;;;2.40;2.20;;;29.80;99.90;;;;;;7376668;19;20337;-79
2022/08/04 07:55:20;;;;;;;2.40;2.20;;;29.90;99.90;;;;;;7373939;19;20304;-79
2022/08/04 07:57:45;;;;;;;3.88;2.25;;;30.10;99.90;;;;;;7372175;19;20862;-79
2022/08/04 08:00:13;;;;;;;2.27;2.13;;;30.30;99.00;;;;;;7375349;19;20340;-79
2022/08/04 08:02:42;;;;;;;4.13;2.20;;;30.40;98.40;;;;;;7375469;19;20348;-79
2022/08/04 08:05:12;;;;;;;2.05;1.95;;;30.60;96.80;;;;;;7376573;19;20347;-79
2022/08/04 08:07:38;;;;;;;2.35;2.15;;;30.80;98.00;;;;;;7376504;19;20335;-79
2022/08/04 08:10:04;;;;;;;2.30;2.10;;;31.00;95.40;;;;;;7376498;19;20332;-79
2022/08/04 08:12:30;;;;;;;2.50;2.30;;;31.10;95.90;;;;;;7376688;19;21020;-79
2022/08/04 08:14:56;;;;;;;5.03;2.20;;;31.30;94.30;;;;;;7376076;19;20370;-79
2022/08/04 08:17:21;;;;;;;2.22;2.10;;;31.50;93.40;;;;;;7377826;19;20305;-79
2022/08/04 08:19:47;;;;;;;3.40;2.03;;;31.70;95.60;;;;;;7376650;19;20348;-79
2022/08/04 08:22:13;;;;;;;3.97;2.20;;;31.90;93.20;;;;;;7375951;19;20754;-79
2022/08/04 08:24:38;;;;;;;2.10;1.90;;;32.10;92.10;;;;;;7376024;19;20328;-79
2022/08/04 08:27:05;;;;;;;3.20;2.10;;;32.20;91.40;;;;;;7374668;19;21214;-79
2022/08/04 08:29:32;;;;;;;1.95;1.85;;;32.50;92.90;;;;;;7376840;19;20669;-79
2022/08/04 08:31:58;;;;;;;2.30;2.20;;;32.70;90.60;;;;;;7377157;19;20340;-79
2022/08/04 08:34:24;;;;;;;2.40;2.20;;;32.90;91.80;;;;;;7375201;19;20320;-80
2022/08/04 08:36:56;;;;;;;3.97;1.90;;;32.90;86.60;;;;;;7378885;19;20697;-79
2022/08/04 08:39:28;;;;;;;4.00;1.90;;;33.00;90.20;;;;;;7375314;19;20390;-79
2022/08/04 08:42:40;;;;;;;4.53;2.00;;;33.10;89.10;;;;;;7274342;19;2004185;-79
2022/08/04 08:45:24;;;;;;;2.00;1.90;;;33.20;84.40;;;;;;7273124;19;2004516;-79
2022/08/04 08:48:32;;;;;;;2.17;2.08;;;33.30;84.10;;;;;;7376661;19;20300;-79
2022/08/04 08:51:12;;;;;;;2.53;2.20;;;33.50;82.20;;;;;;7170208;19;2017253;-79
2022/08/04 08:53:50;;;;;;;2.22;2.03;;;33.80;83.60;;;;;;7376764;19;20343;-80
2022/08/04 08:56:32;;;;;;;2.20;2.10;;;34.00;82.10;;;;;;7380894;19;20329;-80
2022/08/04 08:59:07;;;;;;;2.67;2.00;;;34.20;81.40;;;;;;7275186;19;2004451;-80
2022/08/04 09:01:44;;;;;;;2.38;2.17;;;34.50;83.40;;;;;;7375815;19;20887;-79
2022/08/04 09:04:44;;;;;;;2.80;2.60;;;34.50;80.30;;;;;;7377142;19;21181;-80
2022/08/04 09:07:20;;;;;;;1.93;1.83;;;34.70;80.00;;;;;;7276508;19;2004324;-79
2022/08/04 09:09:51;;;;;;;2.22;2.03;;;34.90;77.30;;;;;;7386655;19;20877;-80
2022/08/04 09:12:27;;;;;;;1.90;1.80;;;35.20;74.40;;;;;;7386107;19;20308;-80
2022/08/04 09:15:13;;;;;;;2.80;2.10;;;35.30;75.10;;;;;;7382633;19;20348;-80
2022/08/04 09:17:44;;;;;;;2.10;1.90;;;35.50;77.60;;;;;;7283332;19;2020090;-80
2022/08/04 09:20:38;;;;;;;1.77;1.67;;;35.20;70.70;;;;;;7385564;19;20309;-79
2022/08/04 09:23:21;;;;;;;3.25;1.80;;;35.20;70.30;;;;;;7281317;19;2005009;-80
2022/08/04 09:26:08;;;;;;;1.70;1.60;;;35.10;66.10;;;;;;7389310;19;20384;-79
2022/08/04 09:29:25;;;;;;;2.65;1.98;;;34.90;66.50;;;;;;7282343;19;2019044;-79
2022/08/04 09:32:34;;;;;;;1.80;1.70;;;35.10;68.00;;;;;;7279341;19;2004637;-79
2022/08/04 09:35:24;;;;;;;2.00;1.80;;;35.50;65.60;;;;;;7181682;19;2004640;-79
2022/08/04 09:37:56;;;;;;;1.92;1.83;;;35.70;66.40;;;;;;7385630;19;20348;-80
2022/08/04 09:40:26;;;;;;;3.80;2.03;;;35.90;64.00;;;;;;7384542;19;21658;-79
2022/08/04 09:43:20;;;;;;;2.50;1.92;;;36.00;62.30;;;;;;7383587;19;21176;-79
2022/08/04 09:45:58;;;;;;;1.90;1.80;;;36.10;63.40;;;;;;7284852;19;2004362;-80
2022/08/04 09:48:43;;;;;;;3.45;2.20;;;36.20;59.80;;;;;;7384360;19;20359;-80
2022/08/04 09:51:52;;;;;;;1.90;1.80;;;36.30;62.60;;;;;;7281878;19;2004698;-80
2022/08/04 09:54:30;;;;;;;2.65;2.00;;;36.60;62.80;;;;;;7283693;19;2004373;-80
2022/08/04 09:57:05;;;;;;;3.00;1.80;;;37.00;59.60;;;;;;7284614;19;2020038;-79
2022/08/04 09:59:44;;;;;;;2.22;1.90;;;37.10;59.40;;;;;;7385025;19;20927;-79
2022/08/04 10:02:11;;;;;;;2.00;1.90;;;37.30;57.30;;;;;;7385657;19;20362;-80
2022/08/04 10:04:37;;;;;;;1.90;1.80;;;37.20;59.50;;;;;;7389945;19;20624;-79
2022/08/04 10:07:09;;;;;;;1.80;1.70;;;37.40;58.70;;;;;;7388784;19;20325;-80
2022/08/04 10:09:59;;;;;;;2.00;1.90;;;37.70;57.00;;;;;;7385456;19;20405;-79
2022/08/04 10:12:57;;;;;;;2.13;1.97;;;37.40;54.90;;;;;;7281574;19;2020011;-79
2022/08/04 10:15:49;;;;;;;2.10;2.00;;;37.50;58.20;;;;;;7382052;19;20347;-81
2022/08/04 10:18:52;;;;;;;1.70;1.60;;;38.00;57.70;;;;;;7284487;19;2004402;-80
2022/08/04 10:21:42;;;;;;;3.77;1.77;;;38.30;53.80;;;;;;7284174;19;2004653;-80
2022/08/04 10:24:37;;;;;;;2.15;1.95;;;38.40;56.10;;;;;;7281365;19;2004313;-80
2022/08/04 10:27:20;;;;;;;1.80;1.70;;;38.40;54.20;;;;;;7282142;19;2004766;-80
2022/08/04 10:29:46;;;;;;;2.80;1.98;;;38.30;52.50;;;;;;7384817;19;20305;-80
2022/08/04 10:32:21;;;;;;;1.80;1.70;;;38.40;54.10;;;;;;7385970;19;20357;-80
2022/08/04 10:34:58;;;;;;;1.80;1.70;;;38.80;54.30;;;;;;7387530;19;20305;-80
2022/08/04 10:37:28;;;;;;;2.00;1.90;;;39.00;53.40;;;;;;7282387;19;2019909;-80
2022/08/04 10:40:35;;;;;;;2.00;1.88;;;38.70;51.80;;;;;;7384542;19;20930;-81
2022/08/04 10:43:19;;;;;;;2.20;2.00;;;39.10;50.10;;;;;;7179728;19;2004586;-79
2022/08/04 10:45:57;;;;;;;2.70;1.90;;;39.10;51.80;;;;;;7385214;19;20381;-78
2022/08/04 10:48:54;;;;;;;2.10;1.90;;;39.30;50.60;;;;;;7384083;19;20341;-77
2022/08/04 10:51:42;;;;;;;1.92;1.83;;;39.70;52.70;;;;;;7281880;19;2018821;-78
2022/08/04 10:54:10;;;;;;;1.80;1.70;;;39.70;50.60;;;;;;7284052;19;2004815;-78
2022/08/04 10:56:41;;;;;;;1.92;1.65;;;39.90;51.50;;;;;;7385824;19;20309;-78
2022/08/04 10:59:27;;;;;;;2.15;1.95;;;40.20;49.80;;;;;;7384355;19;20325;-78
2022/08/04 11:01:55;;;;;;;1.80;1.70;;;40.30;48.60;;;;;;7384629;19;20332;-77
2022/08/04 11:05:08;;;;;;;1.98;1.88;;;40.70;46.90;;;;;;7382107;19;20316;-79
2022/08/04 11:07:34;;;;;;;1.83;1.73;;;40.20;46.80;;;;;;7178650;19;2004442;-78
2022/08/04 11:09:59;;;;;;;1.90;1.80;;;40.20;49.20;;;;;;7382812;19;20342;-78
2022/08/04 11:12:25;;;;;;;2.60;1.80;;;40.30;49.70;;;;;;7380822;19;20312;-78
2022/08/04 11:14:54;;;;;;;1.87;1.77;;;40.70;45.30;;;;;;7378779;19;20357;-77
2022/08/04 11:17:28;;;;;;;1.90;1.80;;;41.30;47.40;;;;;;7380908;19;20833;-77
2022/08/04 11:20:29;;;;;;;1.85;1.75;;;41.80;47.80;;;;;;7377176;19;20357;-77
2022/08/04 11:23:02;;;;;;;1.90;1.80;;;41.40;45.20;;;;;;7173158;19;2004517;-77
2022/08/04 11:25:31;;;;;;;2.28;1.90;;;41.00;47.50;;;;;;7378527;19;20337;-77
2022/08/04 11:28:17;;;;;;;2.13;2.00;;;41.10;48.00;;;;;;7380384;19;20305;-77
2022/08/04 11:31:02;;;;;;;3.33;1.98;;;41.10;46.20;;;;;;7378157;19;20408;-78
2022/08/04 11:33:37;;;;;;;2.08;1.98;;;41.00;43.20;;;;;;7274287;19;2004579;-78
2022/08/04 11:36:26;;;;;;;2.10;1.90;;;41.00;46.40;;;;;;7382719;19;20384;-77
2022/08/04 11:39:17;;;;;;;2.05;1.80;;;41.00;45.00;;;;;;7378890;19;20354;-77
2022/08/04 11:41:55;;;;;;;1.90;1.80;;;41.40;44.30;;;;;;7273042;19;2004595;-78
2022/08/04 11:44:47;;;;;;;1.85;1.70;;;41.60;44.80;;;;;;7375830;19;20309;-77
2022/08/04 11:47:31;;;;;;;2.42;2.22;;;41.40;45.40;;;;;;7277484;19;2004672;-77
2022/08/04 11:50:20;;;;;;;2.05;1.95;;;40.90;44.40;;;;;;7278006;19;2004390;-77
2022/08/04 11:52:46;;;;;;;1.92;1.83;;;40.80;45.00;;;;;;7377172;19;20308;-77
2022/08/04 11:55:13;;;;;;;2.40;1.73;;;41.20;45.90;;;;;;7380346;19;20326;-77
2022/08/04 11:57:39;;;;;;;1.92;1.83;;;41.40;43.40;;;;;;7380135;19;20313;-77
2022/08/04 12:00:08;;;;;;;1.70;1.60;;;41.90;47.60;;;;;;7379280;19;20396;-78
2022/08/04 12:02:58;;;;;;;2.38;2.17;;;42.20;43.80;;;;;;7379775;19;20399;-77
2022/08/04 12:05:29;;;;;;;2.33;2.13;;;42.20;44.40;;;;;;7279319;19;2004469;-77
2022/08/04 12:08:00;;;;;;;3.17;1.83;;;41.60;43.60;;;;;;7380670;19;20345;-77
2022/08/04 12:10:57;;;;;;;3.20;2.07;;;41.40;44.40;;;;;;7380349;19;20296;-77
2022/08/04 12:13:48;;;;;;;1.83;1.70;;;40.70;42.70;;;;;;7378625;19;20834;-77
2022/08/04 12:16:13;;;;;;;1.90;1.80;;;40.80;43.30;;;;;;7277012;19;2004469;-77
2022/08/04 12:18:45;;;;;;;1.90;1.80;;;40.90;41.50;;;;;;7380167;19;20410;-77
2022/08/04 12:21:17;;;;;;;1.90;1.80;;;41.30;42.70;;;;;;7379040;19;20378;-77
2022/08/04 12:23:42;;;;;;;2.00;1.90;;;41.70;41.70;;;;;;7376536;19;20333;-77
2022/08/04 12:26:30;;;;;;;2.70;2.15;;;41.70;39.40;;;;;;7377965;19;20344;-78
2022/08/04 12:28:59;;;;;;;3.38;2.10;;;41.80;43.30;;;;;;7275577;19;2004433;-77
2022/08/04 12:31:46;;;;;;;1.70;1.60;;;41.90;41.80;;;;;;7377582;19;20665;-78
2022/08/04 12:34:14;;;;;;;1.83;1.58;;;41.90;39.90;;;;;;7377113;19;20992;-77
2022/08/04 12:36:55;;;;;;;1.90;1.80;;;41.80;41.80;;;;;;7380668;19;21222;-76
2022/08/04 12:39:21;;;;;;;1.90;1.80;;;41.90;41.30;;;;;;7380006;19;20313;-78
2022/08/04 12:42:07;;;;;;;1.80;1.70;;;42.00;41.50;;;;;;7379201;19;21113;-77
2022/08/04 12:44:33;;;;;;;1.85;1.75;;;42.10;38.20;;;;;;7282910;19;2004493;-78
2022/08/04 12:46:59;;;;;;;2.15;2.05;;;42.10;38.20;;;;;;7386432;19;20869;-77
2022/08/04 12:49:25;;;;;;;2.42;1.80;;;41.60;40.30;;;;;;7386694;19;20384;-77
2022/08/04 12:51:50;;;;;;;1.80;1.70;;;41.40;40.90;;;;;;7388693;19;20744;-77
2022/08/04 12:54:24;;;;;;;1.70;1.60;;;41.60;41.40;;;;;;7385383;19;20327;-77
2022/08/04 12:56:49;;;;;;;1.88;1.70;;;42.10;40.40;;;;;;7384605;19;20361;-77
2022/08/04 12:59:16;;;;;;;2.20;2.00;;;42.60;40.10;;;;;;7386330;19;20353;-77
2022/08/04 13:01:46;;;;;;;4.10;1.83;;;42.80;41.50;;;;;;7385099;19;20348;-77
2022/08/04 13:04:20;;;;;;;2.03;1.85;;;42.70;40.80;;;;;;7385161;19;20344;-78
2022/08/04 13:06:53;;;;;;;1.73;1.63;;;42.50;42.40;;;;;;7387918;19;20318;-78
2022/08/04 13:09:19;;;;;;;1.88;1.70;;;42.30;41.40;;;;;;7385965;19;20305;-77
2022/08/04 13:12:02;;;;;;;1.75;1.65;;;42.40;40.30;;;;;;7387409;19;20321;-77
2022/08/04 13:14:34;;;;;;;1.67;1.58;;;41.90;37.50;;;;;;7277854;19;2019962;-77
2022/08/04 13:17:00;;;;;;;3.15;1.70;;;41.70;39.50;;;;;;7385019;19;20347;-79
2022/08/04 13:19:26;;;;;;;1.90;1.80;;;42.00;40.60;;;;;;7386640;19;21326;-76
2022/08/04 13:21:53;;;;;;;1.80;1.70;;;42.30;38.10;;;;;;7386528;19;20341;-77
2022/08/04 13:24:19;;;;;;;2.37;1.97;;;42.00;40.00;;;;;;7383647;19;20384;-77
2022/08/04 13:27:12;;;;;;;4.50;1.80;;;42.20;39.80;;;;;;7385432;19;20871;-76
2022/08/04 13:29:44;;;;;;;2.73;1.77;;;41.70;38.10;;;;;;7283705;19;2004374;-76
2022/08/04 13:32:10;;;;;;;3.50;1.70;;;41.80;40.60;;;;;;7383900;19;20379;-76